Time;durP1;ratioP1;P1;durP2;ratioP2;P2;SDS_P1;SDS_P2;PMS_P1;PMS_P2;Temp;Humidity;BMP_temperature;BMP_pressure;BME280_temperature;BME280_humidity;BME280_pressure;Samples;Min_cycle;Max_cycle;Signal;HPM_P1;HPM_P2
2022/01/02 00:00:46;;;;;;;5.87;2.00;;;;;;;13.61;65.41;99617.28;4974143;28;20651;-90
2022/01/02 00:03:57;;;;;;;4.07;1.80;;;;;;;13.57;65.97;99628.00;4975393;28;20315;-91
2022/01/02 00:10:06;;;;;;;3.50;2.17;;;;;;;13.41;66.75;99637.72;4953999;29;20211;-93
2022/01/02 00:12:56;;;;;;;;;;;;;;;;;;;;;
2022/01/02 00:15:22;;;;;;;3.23;1.50;;;;;;;13.54;66.38;99635.25;4975064;28;20254;-91
2022/01/02 00:17:56;;;;;;;6.00;2.10;;;;;;;13.34;66.98;99638.13;4973189;28;20197;-90
2022/01/02 00:20:35;;;;;;;3.00;1.50;;;;;;;13.30;66.81;99642.75;4974166;28;20186;-90
2022/01/02 00:23:07;;;;;;;4.43;1.83;;;;;;;13.57;66.27;99642.13;4975062;28;20158;-91
2022/01/02 00:25:42;;;;;;;3.03;1.53;;;;;;;13.57;65.90;99642.97;4973925;28;20227;-90
2022/01/02 00:28:11;;;;;;;3.80;1.90;;;;;;;13.47;66.15;99647.91;4974111;28;20183;-92
2022/01/02 00:30:37;;;;;;;4.80;1.80;;;;;;;13.45;66.37;99643.66;4974338;28;20610;-92
2022/01/02 00:33:03;;;;;;;3.43;1.60;;;;;;;13.63;65.55;99653.16;4973941;28;20652;-92
2022/01/02 00:35:29;;;;;;;5.80;2.40;;;;;;;13.68;65.18;99650.28;4974727;28;20270;-91
2022/01/02 00:37:55;;;;;;;5.87;2.40;;;;;;;13.55;65.66;99647.47;4974822;28;20181;-91
2022/01/02 00:40:20;;;;;;;3.80;1.90;;;;;;;13.49;65.47;99647.81;4974617;28;20246;-89
2022/01/02 00:42:50;;;;;;;3.33;2.00;;;;;;;13.56;65.24;99651.81;4975045;28;20175;-92
2022/01/02 00:45:24;;;;;;;2.57;1.30;;;;;;;13.51;65.45;99649.44;4973664;28;20226;-91
2022/01/02 00:48:15;;;;;;;4.67;1.97;;;;;;;13.42;65.28;99649.94;4974958;28;20179;-90
2022/01/02 00:51:07;;;;;;;4.53;1.43;;;;;;;13.42;65.41;99654.34;4975078;28;20188;-89
2022/01/02 00:53:35;;;;;;;4.80;1.47;;;;;;;13.40;65.61;99646.56;4965835;28;20205;-90
2022/01/02 00:59:45;;;;;;;2.30;1.47;;;;;;;13.21;66.57;99661.66;4954355;29;20199;-92
2022/01/02 01:02:58;;;;;;;2.30;1.33;;;;;;;13.22;66.53;99651.97;4961452;28;20191;-92
2022/01/02 01:05:45;;;;;;;4.00;1.60;;;;;;;13.14;66.28;99659.44;4923290;28;20243;-94
2022/01/02 01:08:35;;;;;;;3.77;1.70;;;;;;;13.05;67.11;99662.56;4975523;28;20161;-93
2022/01/02 01:11:48;;;;;;;4.03;1.80;;;;;;;13.05;66.64;99662.56;4967871;28;20277;-94
2022/01/02 01:14:23;;;;;;;3.70;1.67;;;;;;;13.15;66.55;99661.16;4882026;29;20193;-92
2022/01/02 01:17:17;;;;;;;4.30;1.63;;;;;;;13.11;66.58;99659.63;4965082;28;20615;-93
2022/01/02 01:19:43;;;;;;;2.40;1.37;;;;;;;12.90;67.56;99666.84;4975280;28;20187;-92
2022/01/02 01:22:09;;;;;;;7.13;1.63;;;;;;;13.06;66.98;99664.25;4975106;28;20184;-92
2022/01/02 01:24:35;;;;;;;3.53;1.27;;;;;;;13.16;66.54;99663.69;4974327;28;20208;-94
2022/01/02 01:27:06;;;;;;;4.20;2.00;;;;;;;13.08;66.73;99659.78;4974061;28;20196;-92
2022/01/02 01:29:34;;;;;;;3.57;1.63;;;;;;;12.92;67.37;99655.31;4977286;28;20261;-90
2022/01/02 01:32:06;;;;;;;3.43;1.70;;;;;;;13.11;66.64;99662.25;4978326;28;20232;-92
2022/01/02 01:34:33;;;;;;;2.47;1.60;;;;;;;13.09;66.50;99653.59;4977659;28;20191;-91
2022/01/02 01:36:59;;;;;;;4.60;1.90;;;;;;;13.15;66.27;99656.75;4977950;28;20176;-91
2022/01/02 01:39:25;;;;;;;1.87;1.17;;;;;;;13.05;66.56;99654.66;4978156;28;20181;-92
2022/01/02 01:41:52;;;;;;;3.27;1.60;;;;;;;13.05;66.48;99658.13;4978254;28;20513;-91
2022/01/02 01:46:45;;;;;;;3.43;1.77;;;;;;;12.73;67.88;99656.41;4979001;28;20196;-93
2022/01/02 01:49:15;;;;;;;3.43;1.63;;;;;;;12.79;67.74;99662.16;4978470;28;20185;-91
2022/01/02 01:51:41;;;;;;;4.57;1.77;;;;;;;12.91;67.20;99658.91;4977450;28;20181;-92
2022/01/02 01:54:06;;;;;;;5.77;1.93;;;;;;;13.04;66.69;99663.50;4977123;28;20190;-91
2022/01/02 01:56:32;;;;;;;7.07;2.63;;;;;;;13.00;66.63;99660.16;4977705;28;20277;-90
2022/01/02 01:58:58;;;;;;;4.77;1.27;;;;;;;13.09;66.20;99661.50;4977726;28;20181;-91
2022/01/02 02:01:23;;;;;;;2.70;1.37;;;;;;;13.07;66.09;99663.34;4977681;28;20193;-92
2022/01/02 02:03:49;;;;;;;3.07;1.50;;;;;;;12.86;66.87;99660.94;4977284;28;20311;-92
2022/01/02 02:06:14;;;;;;;2.27;1.17;;;;;;;12.89;66.76;99659.91;4976472;28;20184;-90
2022/01/02 02:08:40;;;;;;;3.93;1.83;;;;;;;12.83;66.81;99647.06;4976587;28;20208;-93
2022/01/02 02:11:05;;;;;;;4.83;2.23;;;;;;;12.85;66.81;99656.59;4978093;28;20266;-90
2022/01/02 02:13:33;;;;;;;5.00;1.57;;;;;;;12.85;66.27;99653.94;4976503;28;20629;-91
2022/01/02 02:16:00;;;;;;;4.57;1.40;;;;;;;13.02;66.05;99646.94;4976349;28;20259;-92
2022/01/02 02:18:26;;;;;;;3.97;1.80;;;;;;;12.90;66.24;99651.94;4977808;28;20181;-91
2022/01/02 02:20:51;;;;;;;2.00;1.03;;;;;;;12.82;66.67;99653.25;4976381;28;20178;-91
2022/01/02 02:23:17;;;;;;;4.13;2.37;;;;;;;12.64;67.01;99657.72;4976808;28;20185;-90
2022/01/02 02:25:43;;;;;;;3.50;1.63;;;;;;;12.81;66.75;99657.66;4975913;28;20265;-92
2022/01/02 02:28:15;;;;;;;3.03;1.70;;;;;;;12.74;66.89;99656.31;4977309;28;20177;-91
2022/01/02 02:30:44;;;;;;;3.33;1.20;;;;;;;12.65;67.30;99661.22;4976295;28;20187;-89
2022/01/02 02:33:11;;;;;;;3.83;1.50;;;;;;;12.70;66.91;99657.41;4976134;28;20190;-92
2022/01/02 02:35:38;;;;;;;2.63;1.10;;;;;;;12.76;66.76;99646.53;4976357;28;20177;-90
2022/01/02 02:38:07;;;;;;;3.17;1.27;;;;;;;12.80;66.63;99644.59;4976004;28;20194;-93
2022/01/02 02:40:33;;;;;;;4.13;1.63;;;;;;;12.79;66.30;99649.00;4975355;28;20191;-90
2022/01/02 02:43:05;;;;;;;3.13;1.57;;;;;;;12.64;66.52;99643.72;4976526;28;20589;-92
2022/01/02 02:52:24;;;;;;;2.70;1.57;;;;;;;12.89;65.79;99649.38;4977357;28;20178;-93
2022/01/02 02:54:19;;;;;;;3.60;1.50;;;;;;;12.86;65.91;99655.66;4972605;28;20193;-91
2022/01/02 02:56:55;;;;;;;6.03;2.10;;;;;;;12.97;65.58;99656.88;4976696;28;20184;-91
2022/01/02 02:59:21;;;;;;;3.73;1.70;;;;;;;12.77;66.15;99664.03;4975520;28;20182;-93
2022/01/02 03:01:47;;;;;;;3.83;1.80;;;;;;;12.82;66.17;99654.13;4976584;28;20261;-88
2022/01/02 03:04:13;;;;;;;3.27;1.70;;;;;;;12.65;66.85;99662.06;4975562;28;20356;-89
2022/01/02 03:06:38;;;;;;;3.80;1.37;;;;;;;12.63;66.99;99669.16;4976015;28;20198;-93
2022/01/02 03:09:09;;;;;;;3.33;1.50;;;;;;;12.56;67.45;99666.94;4976113;28;20178;-92
2022/01/02 03:11:39;;;;;;;2.73;1.27;;;;;;;12.46;67.96;99669.19;4975862;28;20193;-91
2022/01/02 03:14:07;;;;;;;2.73;1.20;;;;;;;12.54;67.38;99672.28;4976375;28;20206;-91
2022/01/02 03:16:32;;;;;;;2.33;1.30;;;;;;;12.54;67.46;99679.31;4975293;28;20191;-90
2022/01/02 03:18:58;;;;;;;4.57;1.40;;;;;;;12.32;68.35;99684.81;4977194;28;20177;-93
2022/01/02 03:21:24;;;;;;;3.17;1.97;;;;;;;12.42;68.06;99678.16;4975195;28;20190;-93
2022/01/02 03:23:50;;;;;;;3.77;1.87;;;;;;;12.50;67.35;99689.13;4975026;28;20208;-92
2022/01/02 03:26:16;;;;;;;4.87;1.33;;;;;;;12.62;67.14;99683.25;4975135;28;20187;-91
2022/01/02 03:28:41;;;;;;;2.70;1.40;;;;;;;12.71;66.36;99684.56;4975902;28;20259;-90
2022/01/02 03:31:07;;;;;;;2.63;1.43;;;;;;;12.70;66.36;99691.59;4974832;28;20654;-90
2022/01/02 03:33:32;;;;;;;4.57;1.60;;;;;;;12.54;67.10;99690.69;4974698;28;20191;-89
2022/01/02 03:35:58;;;;;;;3.00;1.30;;;;;;;12.40;68.12;99697.56;4975638;28;20182;-89
2022/01/02 03:38:23;;;;;;;4.67;1.70;;;;;;;12.24;68.59;99697.50;4975698;28;20181;-90
2022/01/02 03:40:49;;;;;;;3.03;1.33;;;;;;;12.27;68.53;99698.22;4975702;28;20174;-91
2022/01/02 03:43:15;;;;;;;4.47;2.03;;;;;;;12.28;68.64;99704.31;4974870;28;20197;-89
2022/01/02 03:45:40;;;;;;;1.97;1.30;;;;;;;12.20;68.80;99701.22;4974552;28;20663;-90
2022/01/02 03:48:06;;;;;;;2.50;1.30;;;;;;;12.36;68.41;99710.03;4974698;28;20685;-90
2022/01/02 03:50:31;;;;;;;1.33;0.90;;;;;;;12.38;67.95;99721.31;4975433;28;20195;-90
2022/01/02 03:52:57;;;;;;;3.10;1.57;;;;;;;12.41;67.89;99715.06;4976107;28;20239;-90
2022/01/02 03:55:22;;;;;;;2.67;1.40;;;;;;;12.31;68.63;99717.31;4974820;28;20555;-91
2022/01/02 03:57:48;;;;;;;3.63;1.10;;;;;;;12.22;68.74;99715.13;4974398;28;20547;-91
2022/01/02 04:00:15;;;;;;;4.77;2.13;;;;;;;12.15;68.90;99717.22;4974321;28;20227;-90
2022/01/02 04:02:41;;;;;;;4.43;2.13;;;;;;;12.20;68.89;99712.59;4974073;28;20272;-92
2022/01/02 04:05:09;;;;;;;1.90;1.10;;;;;;;12.20;69.08;99717.00;4974961;28;20228;-90
2022/01/02 04:07:37;;;;;;;7.20;2.53;;;;;;;12.30;68.85;99721.72;4974108;28;20203;-92
2022/01/02 04:10:08;;;;;;;3.93;1.73;;;;;;;12.19;69.27;99728.41;4974074;28;20250;-91
2022/01/02 04:12:34;;;;;;;4.83;2.10;;;;;;;12.22;69.27;99717.75;4975463;28;20166;-90
2022/01/02 04:15:00;;;;;;;3.07;1.57;;;;;;;12.13;69.50;99720.88;4975560;28;20196;-92
2022/01/02 04:17:26;;;;;;;5.07;1.70;;;;;;;12.14;69.92;99718.13;4974872;28;20225;-91
2022/01/02 04:19:52;;;;;;;4.60;2.17;;;;;;;12.18;69.68;99724.97;4974191;28;20279;-91
2022/01/02 04:22:18;;;;;;;5.13;2.10;;;;;;;12.18;69.61;99721.47;4974025;28;20177;-91
2022/01/02 04:24:43;;;;;;;4.60;1.90;;;;;;;12.16;69.41;99728.56;4974194;28;20205;-91
2022/01/02 04:27:09;;;;;;;5.77;2.60;;;;;;;12.08;69.88;99728.94;4974117;28;20180;-91
2022/01/02 04:29:35;;;;;;;6.03;1.93;;;;;;;12.03;70.15;99735.34;4975340;28;20179;-91
2022/01/02 04:32:00;;;;;;;6.63;3.37;;;;;;;12.11;69.63;99731.44;4975011;28;20184;-90
2022/01/02 04:34:26;;;;;;;5.23;2.30;;;;;;;11.99;70.57;99731.19;4973812;28;20663;-90
2022/01/02 04:36:51;;;;;;;4.77;1.90;;;;;;;11.99;70.33;99733.81;4975034;28;20172;-93
2022/01/02 04:39:17;;;;;;;5.50;2.13;;;;;;;12.07;70.06;99736.91;4974104;28;20658;-91
2022/01/02 04:41:43;;;;;;;3.70;2.00;;;;;;;11.97;70.48;99741.78;4973854;28;20707;-91
2022/01/02 04:44:08;;;;;;;3.97;2.30;;;;;;;11.98;70.47;99748.72;4973682;28;20209;-90
2022/01/02 04:46:34;;;;;;;3.77;2.10;;;;;;;12.17;70.24;99749.53;4973540;28;20184;-91
2022/01/02 04:49:00;;;;;;;4.37;1.97;;;;;;;12.11;69.96;99748.97;4974592;28;20513;-91
2022/01/02 04:51:25;;;;;;;2.93;1.50;;;;;;;12.03;70.14;99751.97;4973578;28;20212;-91
2022/01/02 04:53:50;;;;;;;3.27;2.10;;;;;;;11.92;70.77;99754.28;4974458;28;20177;-92
2022/01/02 04:56:16;;;;;;;3.97;2.27;;;;;;;11.89;71.03;99759.69;4974365;28;20188;-91
2022/01/02 04:58:42;;;;;;;6.70;3.37;;;;;;;11.95;71.06;99763.81;4973642;28;20195;-90
2022/01/02 05:01:11;;;;;;;4.20;2.43;;;;;;;11.80;72.07;99764.50;4974392;28;20188;-91
2022/01/02 05:03:39;;;;;;;4.27;1.97;;;;;;;11.97;71.06;99767.19;4975034;28;20266;-91
2022/01/02 05:06:06;;;;;;;4.57;2.77;;;;;;;11.78;72.07;99761.97;4978088;28;20176;-93
2022/01/02 05:08:32;;;;;;;9.13;2.87;;;;;;;11.85;71.80;99766.00;4978328;28;20335;-93
2022/01/02 05:11:00;;;;;;;4.93;2.60;;;;;;;11.97;71.10;99761.94;4977488;28;20680;-93
2022/01/02 05:13:26;;;;;;;5.07;2.60;;;;;;;12.03;71.16;99762.47;4978344;28;20628;-88
2022/01/02 05:15:53;;;;;;;5.77;2.07;;;;;;;12.04;70.68;99773.84;4970830;28;20192;-91
2022/01/02 05:18:20;;;;;;;8.93;3.27;;;;;;;11.91;71.73;99772.75;4957663;29;20582;-88
2022/01/02 05:20:47;;;;;;;2.97;1.77;;;;;;;12.00;71.55;99772.31;4974048;28;20272;-92
2022/01/02 05:23:15;;;;;;;3.67;2.00;;;;;;;12.03;71.13;99770.38;4967916;28;20192;-93
2022/01/02 05:25:43;;;;;;;3.20;1.87;;;;;;;11.97;71.79;99775.09;4974948;28;20200;-92
2022/01/02 05:28:12;;;;;;;4.77;2.87;;;;;;;12.05;71.59;99765.91;4966598;28;20281;-93
2022/01/02 05:30:40;;;;;;;4.70;2.47;;;;;;;12.11;71.09;99764.72;4960796;28;20205;-94
2022/01/02 05:33:11;;;;;;;6.57;3.03;;;;;;;12.08;71.29;99771.00;4970666;28;20193;-93
2022/01/02 05:35:37;;;;;;;4.90;2.00;;;;;;;12.26;70.79;99779.78;4976994;28;20229;-92
2022/01/02 05:38:08;;;;;;;7.70;2.13;;;;;;;12.30;70.68;99776.91;4977783;28;20184;-93
2022/01/02 05:40:34;;;;;;;5.87;2.97;;;;;;;12.30;70.86;99781.31;4977138;28;20603;-93
2022/01/02 05:43:04;;;;;;;3.97;2.07;;;;;;;12.47;70.33;99776.09;4977084;28;20579;-92
2022/01/02 05:45:32;;;;;;;8.60;2.50;;;;;;;12.41;70.21;99773.75;4957431;29;20239;-94
2022/01/02 05:47:57;;;;;;;6.30;2.90;;;;;;;12.57;69.77;99777.31;4957614;29;20192;-93
2022/01/02 05:50:24;;;;;;;6.50;2.53;;;;;;;12.53;70.21;99786.28;4958769;29;20182;-94
2022/01/02 05:52:51;;;;;;;5.73;2.83;;;;;;;12.72;69.42;99784.44;4957694;29;20190;-92
2022/01/02 05:55:18;;;;;;;3.77;2.23;;;;;;;12.89;68.40;99783.56;4957373;29;20315;-92
2022/01/02 05:57:45;;;;;;;5.17;2.60;;;;;;;12.81;68.77;99783.94;4957511;29;20662;-92
2022/01/02 06:00:12;;;;;;;4.17;2.23;;;;;;;12.78;68.95;99781.50;4958201;29;20186;-93
2022/01/02 06:02:41;;;;;;;8.03;3.17;;;;;;;12.79;68.91;99790.22;4957814;29;20713;-94
2022/01/02 06:05:08;;;;;;;6.50;3.37;;;;;;;12.65;69.63;99787.47;4958051;29;20222;-92
2022/01/02 06:07:36;;;;;;;8.67;3.63;;;;;;;12.65;69.89;99792.72;4958381;29;20192;-94
2022/01/02 06:10:04;;;;;;;5.47;3.43;;;;;;;12.90;68.81;99801.03;4958884;29;20631;-93
2022/01/02 06:12:31;;;;;;;5.07;2.53;;;;;;;12.82;68.87;99793.56;4957482;29;20268;-92
2022/01/02 06:15:01;;;;;;;7.03;3.13;;;;;;;12.89;68.35;99800.19;4957703;28;20184;-92
2022/01/02 06:17:28;;;;;;;4.07;2.37;;;;;;;12.93;68.62;99793.00;4959126;29;20167;-93
2022/01/02 06:19:55;;;;;;;8.63;3.70;;;;;;;13.21;67.71;99803.81;4957369;29;20260;-93
2022/01/02 06:22:22;;;;;;;4.63;2.83;;;;;;;13.22;67.41;99800.25;4957189;29;20590;-93
2022/01/02 06:24:48;;;;;;;4.17;1.70;;;;;;;13.08;67.81;99801.91;4958579;29;20268;-93
2022/01/02 06:27:15;;;;;;;7.67;2.83;;;;;;;13.19;67.40;99805.69;4958562;29;20635;-94
2022/01/02 06:29:46;;;;;;;6.63;3.37;;;;;;;13.35;67.04;99800.47;4957184;29;20199;-94
2022/01/02 06:32:12;;;;;;;4.13;2.77;;;;;;;13.33;66.65;99803.19;4974412;28;20563;-93
2022/01/02 06:34:45;;;;;;;5.07;2.37;;;;;;;13.46;66.65;99814.78;4977243;28;20185;-92
2022/01/02 06:37:13;;;;;;;7.00;2.60;;;;;;;13.56;66.18;99817.75;4976653;28;20264;-94
2022/01/02 06:39:43;;;;;;;6.87;1.93;;;;;;;13.89;64.50;99823.81;4976806;28;20306;-93
2022/01/02 06:42:12;;;;;;;3.70;2.13;;;;;;;13.84;64.50;99820.56;4978110;28;20344;-93
2022/01/02 06:44:42;;;;;;;4.70;2.50;;;;;;;13.89;64.39;99831.72;4977018;28;20211;-94
2022/01/02 06:47:13;;;;;;;5.23;2.10;;;;;;;13.97;64.12;99826.88;4977799;28;20628;-94
2022/01/02 06:49:47;;;;;;;4.27;2.17;;;;;;;13.73;65.15;99830.84;4977690;28;20180;-94
2022/01/02 06:52:14;;;;;;;5.13;2.83;;;;;;;14.10;63.90;99835.78;4976785;28;20183;-93
2022/01/02 06:54:46;;;;;;;4.43;2.03;;;;;;;14.20;63.19;99832.66;4976707;28;20183;-93
2022/01/02 06:57:12;;;;;;;6.27;2.40;;;;;;;14.61;62.12;99828.53;4977790;28;20572;-94
2022/01/02 06:59:39;;;;;;;3.97;2.23;;;;;;;15.03;60.13;99831.28;4976810;28;20206;-94
2022/01/02 07:02:06;;;;;;;5.30;2.50;;;;;;;15.07;59.35;99829.31;4976721;28;20191;-94
2022/01/02 07:04:45;;;;;;;4.67;2.43;;;;;;;15.06;59.65;99836.41;4977242;28;20209;-94
2022/01/02 07:07:14;;;;;;;5.03;2.23;;;;;;;15.16;59.31;99837.53;4977179;28;20239;-94
2022/01/02 07:09:41;;;;;;;6.23;2.80;;;;;;;15.36;58.59;99845.09;4976793;28;20188;-94
2022/01/02 07:12:15;;;;;;;3.77;2.67;;;;;;;15.17;58.53;99841.03;4976802;28;20187;-92
2022/01/02 07:14:42;;;;;;;6.13;2.87;;;;;;;15.23;58.57;99848.56;4976945;28;20574;-93
2022/01/02 07:17:11;;;;;;;5.73;2.33;;;;;;;15.28;58.66;99846.50;4976833;28;20184;-94
2022/01/02 07:19:38;;;;;;;5.13;2.63;;;;;;;15.46;58.27;99849.88;4975892;28;20208;-93
2022/01/02 07:22:05;;;;;;;3.37;1.93;;;;;;;15.63;57.19;99847.88;4976458;28;20195;-92
2022/01/02 07:24:33;;;;;;;3.30;1.97;;;;;;;15.52;58.08;99849.47;4976158;28;20193;-93
2022/01/02 07:27:01;;;;;;;6.20;2.87;;;;;;;14.82;60.00;99853.69;4972460;28;20208;-94
2022/01/02 07:29:29;;;;;;;3.93;2.27;;;;;;;14.86;60.32;99852.53;4958176;29;20192;-95
2022/01/02 07:31:56;;;;;;;4.67;2.67;;;;;;;14.64;60.60;99852.13;4971639;28;20274;-92
2022/01/02 07:34:22;;;;;;;5.30;3.27;;;;;;;14.80;61.12;99852.94;4955861;29;20196;-92
2022/01/02 07:36:55;;;;;;;7.00;2.60;;;;;;;14.70;61.42;99851.78;4975118;28;20185;-92
2022/01/02 07:39:22;;;;;;;7.77;2.47;;;;;;;14.72;61.46;99852.53;4974478;28;20287;-92
2022/01/02 07:41:49;;;;;;;3.77;2.40;;;;;;;14.40;62.14;99845.59;4973946;28;20576;-94
2022/01/02 07:44:15;;;;;;;4.70;2.43;;;;;;;14.49;61.92;99853.00;4974364;28;20670;-93
2022/01/02 07:46:42;;;;;;;6.47;2.50;;;;;;;14.70;61.49;99842.03;4974324;28;20183;-88
2022/01/02 07:49:09;;;;;;;5.33;2.40;;;;;;;14.86;61.05;99849.09;4975382;28;20620;-90
2022/01/02 07:51:36;;;;;;;4.40;1.87;;;;;;;14.82;60.98;99848.41;4974225;28;20185;-86
2022/01/02 07:54:03;;;;;;;7.63;2.57;;;;;;;14.85;61.19;99845.59;4974333;28;20595;-89
2022/01/02 07:56:30;;;;;;;3.37;1.60;;;;;;;14.99;60.45;99850.88;4974884;28;20591;-87
2022/01/02 07:58:57;;;;;;;3.80;2.13;;;;;;;14.96;60.35;99851.09;4974663;28;20275;-88
2022/01/02 08:01:24;;;;;;;3.20;1.63;;;;;;;14.97;60.17;99857.19;4974024;28;20193;-87
2022/01/02 08:03:51;;;;;;;5.57;1.93;;;;;;;15.10;60.32;99859.03;4975427;28;20180;-87
2022/01/02 08:06:18;;;;;;;4.00;1.93;;;;;;;15.07;59.96;99861.00;4972854;28;20211;-88
2022/01/02 08:08:45;;;;;;;5.07;2.20;;;;;;;15.18;59.68;99862.06;4970972;28;20643;-90
2022/01/02 08:11:15;;;;;;;14.73;2.50;;;;;;;15.23;59.17;99862.63;4992176;28;20218;-88
2022/01/02 08:13:42;;;;;;;4.90;2.40;;;;;;;15.43;58.55;99868.50;4986810;28;20250;-89
2022/01/02 08:16:07;;;;;;;4.70;2.10;;;;;;;15.66;58.54;99870.63;4989592;28;20245;-88
2022/01/02 08:18:33;;;;;;;7.73;2.20;;;;;;;15.36;58.69;99865.38;4972116;28;20196;-89
2022/01/02 08:20:58;;;;;;;5.80;2.53;;;;;;;15.33;59.41;99870.84;4972763;28;20843;-88
2022/01/02 08:23:24;;;;;;;3.77;2.00;;;;;;;15.41;59.22;99875.69;4975946;28;20172;-89
2022/01/02 08:25:49;;;;;;;5.37;2.23;;;;;;;15.67;59.80;99875.81;4981738;28;20652;-88
2022/01/02 08:28:15;;;;;;;6.43;2.53;;;;;;;15.58;58.07;99875.53;4992106;28;20180;-89
2022/01/02 08:30:43;;;;;;;5.40;2.90;;;;;;;15.56;58.36;99874.78;4992749;28;20192;-89
2022/01/02 08:33:09;;;;;;;7.00;3.00;;;;;;;15.76;58.05;99884.97;4993229;28;20182;-89
2022/01/02 08:35:34;;;;;;;10.37;3.70;;;;;;;15.95;57.98;99875.81;4993869;28;20682;-90
2022/01/02 08:38:00;;;;;;;3.97;1.90;;;;;;;15.90;57.06;99879.69;4993398;28;20182;-87
2022/01/02 08:40:25;;;;;;;4.20;2.23;;;;;;;15.75;57.91;99878.84;4993075;28;20246;-89
2022/01/02 08:42:51;;;;;;;5.10;2.37;;;;;;;16.04;57.89;99877.00;4994035;28;20179;-89
2022/01/02 08:45:16;;;;;;;8.77;2.90;;;;;;;16.33;56.98;99873.38;4993865;28;20209;-89
2022/01/02 08:47:42;;;;;;;3.57;1.70;;;;;;;16.14;56.81;99875.47;4976598;28;20194;-89
2022/01/02 08:50:13;;;;;;;3.40;1.53;;;;;;;16.30;56.11;99876.19;4990330;28;20213;-91
2022/01/02 08:52:39;;;;;;;10.80;2.70;;;;;;;16.42;56.13;99885.16;4992547;28;20211;-88
2022/01/02 08:55:05;;;;;;;5.77;2.63;;;;;;;16.58;55.25;99885.91;4993521;28;20194;-88
2022/01/02 08:57:30;;;;;;;4.13;2.20;;;;;;;16.62;55.29;99886.53;4993877;28;20170;-88
2022/01/02 08:59:56;;;;;;;5.90;2.53;;;;;;;16.37;55.88;99885.47;4994293;28;20180;-90
2022/01/02 09:02:21;;;;;;;7.47;2.73;;;;;;;16.62;56.25;99884.75;4992653;28;20198;-89
2022/01/02 09:04:47;;;;;;;6.20;3.07;;;;;;;16.77;55.02;99883.72;4975441;28;20257;-89
2022/01/02 09:07:12;;;;;;;5.00;2.47;;;;;;;16.82;54.66;99875.50;4967020;28;20184;-89
2022/01/02 09:09:40;;;;;;;4.30;2.00;;;;;;;16.88;55.01;99877.72;4963725;28;20251;-90
2022/01/02 09:12:06;;;;;;;4.80;2.13;;;;;;;17.19;54.59;99874.72;4962513;28;20263;-89
2022/01/02 09:14:32;;;;;;;5.80;2.30;;;;;;;17.34;54.52;99873.69;4990470;28;20264;-90
2022/01/02 09:16:57;;;;;;;4.23;2.40;;;;;;;17.47;53.79;99874.53;4993734;28;20602;-88
2022/01/02 09:19:23;;;;;;;5.00;2.53;;;;;;;17.56;53.54;99871.28;4984128;28;20187;-91
2022/01/02 09:21:48;;;;;;;4.63;2.33;;;;;;;17.66;52.89;99860.88;4978079;28;20749;-88
2022/01/02 09:24:13;;;;;;;3.63;1.93;;;;;;;17.51;53.77;99862.75;4992364;28;20218;-89
2022/01/02 09:26:42;;;;;;;4.93;2.87;;;;;;;17.62;53.59;99848.78;4973519;28;20221;-92
2022/01/02 09:29:08;;;;;;;6.33;2.43;;;;;;;17.90;53.59;99848.53;4975196;28;20192;-89
2022/01/02 09:31:33;;;;;;;5.83;2.13;;;;;;;18.21;51.62;99839.22;4970530;28;20290;-90
2022/01/02 09:34:02;;;;;;;4.03;2.07;;;;;;;18.51;51.70;99839.66;4973555;28;20184;-91
2022/01/02 09:36:32;;;;;;;5.87;2.27;;;;;;;18.54;50.98;99839.44;4970337;28;20192;-88
2022/01/02 09:39:31;;;;;;;3.97;1.63;;;;;;;18.50;49.64;99831.81;4962108;28;20177;-92
2022/01/02 09:42:05;;;;;;;7.17;2.33;;;;;;;18.32;49.76;99828.66;4956729;28;20193;-89
2022/01/02 09:44:41;;;;;;;4.27;1.80;;;;;;;18.32;49.71;99833.97;4991037;28;20210;-89
2022/01/02 09:47:10;;;;;;;7.93;2.47;;;;;;;18.23;50.23;99832.00;4984641;28;20196;-89
2022/01/02 09:49:43;;;;;;;2.53;1.57;;;;;;;18.36;48.75;99832.78;4966635;28;20186;-91
2022/01/02 09:52:11;;;;;;;4.60;1.10;;;;;;;18.21;48.25;99826.78;4964331;28;20177;-89
2022/01/02 09:54:37;;;;;;;4.13;2.10;;;;;;;18.20;49.00;99818.94;4969731;28;20272;-87
2022/01/02 09:57:05;;;;;;;4.93;2.03;;;;;;;18.46;50.12;99825.84;4974878;28;20196;-89
2022/01/02 09:59:40;;;;;;;4.23;1.67;;;;;;;18.70;48.55;99821.41;4967182;28;20198;-90
2022/01/02 10:02:54;;;;;;;4.83;2.07;;;;;;;18.63;49.49;99822.81;4964925;28;20180;-94
2022/01/02 10:05:21;;;;;;;4.23;1.90;;;;;;;18.97;49.55;99816.66;4948579;28;20220;-89
2022/01/02 10:07:47;;;;;;;3.47;1.40;;;;;;;18.98;47.79;99820.16;4982733;28;20193;-89
2022/01/02 10:10:31;;;;;;;4.53;1.80;;;;;;;19.07;48.59;99822.13;4974636;28;20694;-91
2022/01/02 10:13:03;;;;;;;2.60;1.50;;;;;;;19.00;47.64;99819.06;4992434;28;20191;-90
2022/01/02 10:15:34;;;;;;;3.67;1.60;;;;;;;19.11;47.45;99812.09;4994621;28;20201;-90
2022/01/02 10:18:06;;;;;;;3.60;1.40;;;;;;;19.13;45.62;99815.50;4991342;28;20199;-90
2022/01/02 10:20:47;;;;;;;7.00;2.10;;;;;;;19.15;46.78;99805.59;4994837;28;20175;-91
2022/01/02 10:23:22;;;;;;;3.73;1.37;;;;;;;19.17;46.89;99801.00;4992834;28;20192;-90
2022/01/02 10:25:53;;;;;;;3.13;1.13;;;;;;;18.67;47.08;99803.03;4991696;28;20209;-92
2022/01/02 10:28:32;;;;;;;3.10;1.50;;;;;;;18.66;47.05;99792.50;4988881;28;20598;-90
2022/01/02 10:31:01;;;;;;;3.57;1.27;;;;;;;18.80;47.76;99789.69;4993318;28;20264;-89
2022/01/02 10:33:46;;;;;;;3.70;1.80;;;;;;;18.83;46.78;99787.66;4994596;28;20182;-90
2022/01/02 10:36:12;;;;;;;2.23;1.20;;;;;;;19.06;46.74;99788.53;4975484;28;20224;-88
2022/01/02 10:38:38;;;;;;;2.77;1.30;;;;;;;19.04;46.62;99785.16;4984296;28;20350;-90
2022/01/02 10:41:37;;;;;;;3.53;1.60;;;;;;;18.79;46.50;99786.16;4995176;28;20679;-91
2022/01/02 10:44:35;;;;;;;6.43;2.90;;;;;;;18.69;46.47;99779.00;4958417;28;20174;-90
2022/01/02 10:47:29;;;;;;;5.73;1.67;;;;;;;18.65;46.29;99773.09;4956104;28;20687;-90
2022/01/02 10:50:23;;;;;;;4.13;1.97;;;;;;;19.01;46.33;99772.94;4957141;28;20284;-90
2022/01/02 10:53:01;;;;;;;3.93;1.50;;;;;;;18.89;46.30;99767.75;4956202;28;20217;-91
2022/01/02 10:55:38;;;;;;;2.03;1.10;;;;;;;18.75;46.75;99765.28;4983071;28;20238;-93
2022/01/02 10:58:24;;;;;;;3.07;1.20;;;;;;;18.74;45.92;99766.22;4985078;28;20242;-94
2022/01/02 11:01:11;;;;;;;2.90;1.20;;;;;;;18.94;46.36;99765.56;4976899;28;20184;-93
2022/01/02 11:04:31;;;;;;;;;;;;;;;;;;;;;
2022/01/02 11:07:48;;;;;;;3.37;1.67;;;;;;;19.05;46.58;99759.44;4978221;28;20280;-95
2022/01/02 11:17:51;;;;;;;4.07;1.80;;;;;;;19.24;46.44;99760.53;4929617;29;20213;-95
2022/01/02 11:24:21;;;;;;;;;;;;;;;;;;;;;
2022/01/02 11:27:23;;;;;;;4.23;1.73;;;;;;;19.52;45.27;99764.56;4864639;29;20295;-94
2022/01/02 11:33:40;;;;;;;3.63;1.40;;;;;;;19.50;42.91;99761.16;4860340;29;20232;-90
2022/01/02 11:36:22;;;;;;;1.77;0.80;;;;;;;19.73;43.08;99757.53;4854237;29;20195;-90
2022/01/02 21:21:58;;;;;;;22.17;7.23;;;;;;;11.18;75.22;99602.94;5850154;23;21096;-92
2022/01/02 21:24:24;;;;;;;13.67;5.80;;;;;;;11.14;75.30;99601.38;4945300;28;20240;-93
2022/01/02 21:26:50;;;;;;;13.07;5.20;;;;;;;11.15;75.06;99596.97;4929222;28;20237;-93
2022/01/02 21:29:18;;;;;;;28.90;10.00;;;;;;;11.15;75.02;99589.97;4945482;29;20306;-93
2022/01/02 21:31:43;;;;;;;27.10;9.83;;;;;;;11.17;74.91;99598.59;4938617;29;20255;-93
2022/01/02 21:34:09;;;;;;;18.17;7.87;;;;;;;11.19;73.95;99586.25;4939562;29;20173;-95
2022/01/02 21:36:35;;;;;;;19.10;6.13;;;;;;;11.17;73.53;99585.50;4938499;29;20621;-94
2022/01/02 21:39:02;;;;;;;13.97;7.87;;;;;;;11.19;73.12;99574.94;4938454;29;20189;-93
2022/01/02 21:41:28;;;;;;;12.13;6.20;;;;;;;11.16;72.20;99575.09;4938579;29;20182;-93
2022/01/02 21:43:53;;;;;;;17.73;7.80;;;;;;;11.07;71.63;99571.13;4939235;29;20251;-94
2022/01/02 21:46:22;;;;;;;21.57;9.50;;;;;;;10.95;71.55;99569.09;4940208;29;20205;-94
2022/01/02 21:48:49;;;;;;;16.07;7.77;;;;;;;10.87;71.20;99555.47;4942783;29;20272;-95
2022/01/02 21:51:16;;;;;;;15.97;7.83;;;;;;;10.84;70.69;99553.00;4941905;29;20212;-93
2022/01/02 21:53:43;;;;;;;14.37;6.93;;;;;;;10.81;70.85;99545.28;4941998;29;20629;-92
2022/01/02 21:56:11;;;;;;;28.40;9.17;;;;;;;10.79;70.25;99537.50;4941945;29;20537;-94
2022/01/02 21:58:37;;;;;;;22.43;8.23;;;;;;;10.78;70.19;99537.53;4942138;29;20192;-93
2022/01/02 22:01:03;;;;;;;21.90;7.70;;;;;;;10.72;70.23;99536.06;4942721;29;20247;-93
2022/01/02 22:03:32;;;;;;;24.60;8.57;;;;;;;10.62;71.01;99534.78;4942083;29;20180;-95